createdAt,value
2023-04-29T00:01:26.152Z,12.28
2023-04-29T00:03:53.873Z,12.23
2023-04-29T00:06:21.888Z,12.15
2023-04-29T00:08:49.132Z,12.01
2023-04-29T00:11:16.444Z,11.99
2023-04-29T00:13:43.479Z,11.95
2023-04-29T00:16:10.981Z,12.01
2023-04-29T00:18:38.211Z,12.03
2023-04-29T00:21:08.687Z,12.23
2023-04-29T00:23:35.849Z,12.48
2023-04-29T00:26:02.816Z,12.60
2023-04-29T00:28:29.853Z,12.60
2023-04-29T00:30:57.444Z,12.77
2023-04-29T00:33:24.481Z,12.91
2023-04-29T00:35:51.693Z,12.99
2023-04-29T00:38:18.909Z,13.04
2023-04-29T00:40:46.315Z,13.50
2023-04-29T00:43:13.652Z,13.80
2023-04-29T00:45:40.690Z,14.12
2023-04-29T00:48:08.126Z,14.31
2023-04-29T00:50:36.918Z,14.42
2023-04-29T00:53:04.621Z,14.47
2023-04-29T00:55:33.646Z,14.46
2023-04-29T00:58:02.913Z,14.51
2023-04-29T01:00:31.110Z,14.45
2023-04-29T01:03:00.075Z,14.40
2023-04-29T01:05:27.554Z,14.35
2023-04-29T01:08:02.703Z,14.25
2023-04-29T01:10:36.017Z,14.17
2023-04-29T01:13:18.087Z,14.14
2023-04-29T01:16:05.180Z,14.10
2023-04-29T01:18:54.831Z,14.13
2023-04-29T01:21:26.282Z,14.12
2023-04-29T01:23:56.536Z,14.03
2023-04-29T01:26:27.615Z,14.05
2023-04-29T01:29:23.466Z,14.02
2023-04-29T01:32:16.061Z,14.01
2023-04-29T01:34:55.177Z,14.02
2023-04-29T01:37:39.184Z,14.03
2023-04-29T01:40:12.252Z,14.02
2023-04-29T01:43:03.594Z,13.98
2023-04-29T01:45:34.712Z,13.94
2023-04-29T01:48:03.275Z,13.89
2023-04-29T01:50:31.351Z,13.80
2023-04-29T01:53:08.191Z,13.77
2023-04-29T01:55:35.360Z,13.68
2023-04-29T01:58:22.701Z,13.69
2023-04-29T02:01:10.651Z,13.57
2023-04-29T02:03:38.071Z,13.49
2023-04-29T02:06:08.418Z,13.34
2023-04-29T02:08:36.644Z,13.22
2023-04-29T02:11:03.636Z,13.02
2023-04-29T02:13:38.654Z,12.86
2023-04-29T02:16:13.725Z,12.71
2023-04-29T02:19:07.089Z,12.28
2023-04-29T02:21:35.410Z,12.09
2023-04-29T02:24:02.845Z,12.12
2023-04-29T02:26:29.745Z,12.14
2023-04-29T02:28:58.262Z,12.04
2023-04-29T02:31:25.351Z,11.96
2023-04-29T02:33:54.502Z,11.93
2023-04-29T02:36:21.585Z,11.96
2023-04-29T02:38:51.083Z,12.23
2023-04-29T02:41:18.504Z,12.17
2023-04-29T02:43:49.345Z,12.17
2023-04-29T02:46:16.930Z,12.09
2023-04-29T02:48:43.807Z,12.08
2023-04-29T02:51:11.263Z,12.17
2023-04-29T02:53:38.206Z,12.04
2023-04-29T02:56:05.701Z,11.97
2023-04-29T02:58:32.796Z,11.85
2023-04-29T03:00:59.741Z,11.73
2023-04-29T03:03:26.901Z,11.73
2023-04-29T03:05:54.121Z,11.73
2023-04-29T03:08:21.064Z,11.65
2023-04-29T03:10:48.020Z,11.64
2023-04-29T03:13:14.951Z,11.53
2023-04-29T03:15:42.086Z,11.48
2023-04-29T03:18:09.997Z,11.40
2023-04-29T03:20:37.365Z,11.29
2023-04-29T03:23:05.397Z,11.20
2023-04-29T03:25:32.326Z,11.18
2023-04-29T03:27:59.350Z,11.15
2023-04-29T03:30:26.350Z,11.16
2023-04-29T03:32:56.983Z,10.99
2023-04-29T03:35:24.945Z,10.99
2023-04-29T03:38:14.679Z,10.87
2023-04-29T03:40:42.013Z,10.77
2023-04-29T03:43:09.643Z,10.74
2023-04-29T03:45:38.192Z,10.72
2023-04-29T03:48:06.792Z,10.64
2023-04-29T03:50:34.514Z,10.90
2023-04-29T03:53:01.416Z,10.95
2023-04-29T03:55:29.135Z,10.89
2023-04-29T03:57:56.243Z,10.82
2023-04-29T04:00:24.248Z,10.83
2023-04-29T04:02:54.986Z,10.86
2023-04-29T04:05:25.397Z,10.84
2023-04-29T04:08:01.094Z,10.87
2023-04-29T04:10:28.717Z,10.85
2023-04-29T04:12:56.850Z,10.86
2023-04-29T04:15:24.092Z,10.76
2023-04-29T04:17:51.297Z,10.57
2023-04-29T04:20:18.702Z,10.52
2023-04-29T04:22:47.675Z,10.53
2023-04-29T04:25:27.508Z,10.52
2023-04-29T04:28:00.531Z,10.60
2023-04-29T04:30:53.793Z,10.76
2023-04-29T04:33:20.976Z,10.76
2023-04-29T04:35:53.694Z,10.89
2023-04-29T04:38:25.658Z,10.86
2023-04-29T04:40:53.000Z,10.97
2023-04-29T04:43:41.792Z,10.86
2023-04-29T04:46:17.187Z,10.82
2023-04-29T04:49:04.154Z,10.80
2023-04-29T04:51:33.824Z,10.78
2023-04-29T04:54:00.795Z,10.86
2023-04-29T04:56:29.777Z,11.13
2023-04-29T04:58:56.705Z,11.35
2023-04-29T05:01:23.786Z,11.54
2023-04-29T05:03:51.038Z,11.59
2023-04-29T05:06:18.308Z,11.71
2023-04-29T05:08:47.305Z,11.74
2023-04-29T05:11:19.370Z,11.96
2023-04-29T05:13:58.441Z,11.99
2023-04-29T05:16:25.392Z,12.28
2023-04-29T05:18:52.274Z,12.80
2023-04-29T05:21:19.258Z,13.72
2023-04-29T05:23:47.194Z,14.60
2023-04-29T05:26:14.224Z,14.69
2023-04-29T05:28:41.592Z,14.52
2023-04-29T05:31:09.927Z,14.81
2023-04-29T05:33:37.321Z,14.79
2023-04-29T05:36:04.746Z,15.17
2023-04-29T05:38:32.385Z,15.38
2023-04-29T05:41:09.423Z,15.24
2023-04-29T05:44:01.161Z,15.15
2023-04-29T05:46:28.251Z,15.07
2023-04-29T05:48:55.564Z,14.91
2023-04-29T05:51:22.536Z,15.14
2023-04-29T05:53:49.456Z,15.17
2023-04-29T05:56:17.002Z,15.59
2023-04-29T05:58:44.001Z,15.87
2023-04-29T06:01:11.327Z,16.16
2023-04-29T06:03:39.117Z,15.98
2023-04-29T06:06:35.645Z,16.36
2023-04-29T06:09:28.634Z,16.86
2023-04-29T06:12:00.819Z,16.92
2023-04-29T06:14:28.002Z,16.30
2023-04-29T06:16:55.367Z,16.19
2023-04-29T06:19:22.554Z,16.22
2023-04-29T06:21:49.867Z,16.48
2023-04-29T06:24:17.772Z,16.27
2023-04-29T06:26:45.984Z,16.80
2023-04-29T06:29:13.122Z,16.50
2023-04-29T06:31:40.918Z,17.00
2023-04-29T06:34:08.685Z,17.08
2023-04-29T06:36:44.403Z,16.36
2023-04-29T06:39:29.925Z,16.38
2023-04-29T06:42:17.117Z,16.57
2023-04-29T06:45:01.512Z,17.13
2023-04-29T06:47:39.696Z,17.32
2023-04-29T06:50:26.690Z,16.91
2023-04-29T06:52:53.639Z,16.76
2023-04-29T06:55:21.202Z,17.09
2023-04-29T06:57:48.289Z,17.01
2023-04-29T07:00:16.209Z,16.74
2023-04-29T07:02:43.576Z,17.17
2023-04-29T07:05:16.675Z,17.35
2023-04-29T07:07:43.647Z,17.69
2023-04-29T07:10:10.934Z,18.05
2023-04-29T07:12:37.989Z,18.53
2023-04-29T07:15:05.268Z,18.59
2023-04-29T07:17:32.311Z,18.30
2023-04-29T07:19:59.379Z,18.41
2023-04-29T07:22:26.436Z,18.47
2023-04-29T07:24:55.585Z,18.77
2023-04-29T07:27:23.094Z,19.14
2023-04-29T07:29:50.436Z,18.82
2023-04-29T07:32:17.512Z,18.82
2023-04-29T07:34:44.533Z,18.98
2023-04-29T07:37:11.451Z,19.06
2023-04-29T07:39:38.417Z,19.07
2023-04-29T07:42:05.451Z,19.33
2023-04-29T07:44:32.431Z,19.34
2023-04-29T07:46:59.350Z,19.35
2023-04-29T07:49:26.563Z,19.01
2023-04-29T07:51:53.521Z,19.00
2023-04-29T07:54:20.428Z,19.49
2023-04-29T07:56:48.959Z,19.90
2023-04-29T07:59:16.496Z,20.12
2023-04-29T08:01:43.562Z,20.27
2023-04-29T08:04:11.411Z,20.47
2023-04-29T08:06:48.771Z,19.73
2023-04-29T08:09:16.515Z,20.26
2023-04-29T08:11:45.075Z,20.47
2023-04-29T08:14:13.487Z,20.56
2023-04-29T08:16:40.537Z,20.64
2023-04-29T08:19:07.550Z,20.95
2023-04-29T08:21:34.921Z,20.67
2023-04-29T08:24:01.890Z,21.20
2023-04-29T08:26:28.755Z,21.57
2023-04-29T08:28:56.004Z,21.92
2023-04-29T08:31:23.209Z,21.37
2023-04-29T08:33:50.237Z,21.54
2023-04-29T08:36:17.161Z,21.45
2023-04-29T08:38:44.378Z,21.54
2023-04-29T08:41:12.108Z,21.46
2023-04-29T08:43:41.000Z,21.27
2023-04-29T08:46:08.496Z,20.93
2023-04-29T08:48:38.056Z,20.25
2023-04-29T08:51:05.254Z,19.83
2023-04-29T08:53:32.413Z,19.28
2023-04-29T08:56:08.783Z,19.20
2023-04-29T08:58:39.486Z,19.18
2023-04-29T09:01:10.418Z,18.88
2023-04-29T09:03:51.524Z,19.02
2023-04-29T09:06:19.732Z,19.31
2023-04-29T09:08:47.893Z,19.57
2023-04-29T09:11:15.578Z,19.83
2023-04-29T09:13:42.454Z,20.27
2023-04-29T09:16:12.867Z,20.48
2023-04-29T09:18:43.101Z,21.23
2023-04-29T09:21:22.803Z,21.03
2023-04-29T09:23:52.592Z,20.69
2023-04-29T09:26:19.746Z,20.27
2023-04-29T09:28:47.991Z,20.54
2023-04-29T09:31:15.023Z,20.77
2023-04-29T09:33:59.261Z,20.82
2023-04-29T09:36:38.351Z,20.94
2023-04-29T09:39:12.228Z,20.69
2023-04-29T09:41:54.352Z,20.58
2023-04-29T09:44:24.699Z,20.19
2023-04-29T09:47:04.761Z,19.39
2023-04-29T09:49:39.037Z,19.10
2023-04-29T09:52:17.072Z,18.94
2023-04-29T09:54:44.972Z,18.74
2023-04-29T09:57:14.031Z,18.86
2023-04-29T09:59:42.052Z,19.03
2023-04-29T10:02:19.180Z,19.37
2023-04-29T10:04:52.083Z,19.64
2023-04-29T10:07:20.544Z,19.64
2023-04-29T10:09:48.302Z,19.49
2023-04-29T10:12:18.525Z,19.27
2023-04-29T10:14:58.474Z,19.53
2023-04-29T10:17:51.468Z,19.64
2023-04-29T10:20:25.382Z,19.54
2023-04-29T10:22:58.187Z,19.64
2023-04-29T10:25:28.293Z,19.90
2023-04-29T10:27:56.255Z,20.06
2023-04-29T10:30:23.465Z,20.17
2023-04-29T10:32:52.706Z,20.27
2023-04-29T10:35:23.864Z,20.25
2023-04-29T10:37:51.588Z,20.08
2023-04-29T10:40:21.528Z,20.22
2023-04-29T10:42:53.309Z,20.50
2023-04-29T10:45:38.015Z,20.46
2023-04-29T10:48:11.025Z,20.46
2023-04-29T10:50:59.736Z,20.62
2023-04-29T10:53:28.222Z,20.92
2023-04-29T10:55:58.778Z,20.65
2023-04-29T10:58:35.811Z,20.60
2023-04-29T11:01:03.692Z,20.65
2023-04-29T11:04:03.121Z,20.66
2023-04-29T11:06:36.253Z,20.78
2023-04-29T11:09:11.234Z,20.74
2023-04-29T11:11:49.424Z,21.05
2023-04-29T11:14:22.711Z,21.41
2023-04-29T11:16:53.830Z,21.36
2023-04-29T11:19:21.032Z,21.29
2023-04-29T11:21:48.168Z,21.48
2023-04-29T11:24:16.479Z,21.34
2023-04-29T11:26:44.619Z,21.61
2023-04-29T11:29:11.679Z,21.54
2023-04-29T11:31:41.602Z,21.47
2023-04-29T11:34:08.874Z,21.71
2023-04-29T11:36:36.901Z,21.56
2023-04-29T11:39:05.088Z,21.78
2023-04-29T11:41:32.682Z,22.09
2023-04-29T11:44:00.591Z,21.55
2023-04-29T11:46:31.515Z,21.81
2023-04-29T11:49:00.322Z,21.91
2023-04-29T11:51:28.258Z,22.17
2023-04-29T11:53:56.073Z,22.05
2023-04-29T11:56:26.041Z,22.33
2023-04-29T11:58:59.336Z,22.52
2023-04-29T12:01:27.463Z,22.72
2023-04-29T12:04:02.994Z,22.50
2023-04-29T12:06:30.779Z,22.24
2023-04-29T12:09:04.681Z,22.32
2023-04-29T12:11:31.669Z,22.19
2023-04-29T12:14:01.250Z,22.46
2023-04-29T12:16:29.815Z,22.37
2023-04-29T12:18:58.033Z,22.21
2023-04-29T12:21:25.101Z,22.55
2023-04-29T12:23:52.864Z,22.70
2023-04-29T12:26:21.386Z,22.84
2023-04-29T12:28:54.129Z,22.74
2023-04-29T12:31:21.491Z,22.70
2023-04-29T12:33:48.430Z,22.51
2023-04-29T12:36:19.388Z,22.53
2023-04-29T12:38:48.161Z,22.60
2023-04-29T12:41:17.533Z,22.72
2023-04-29T12:43:44.893Z,23.09
2023-04-29T12:46:15.219Z,22.91
2023-04-29T12:48:43.960Z,23.08
2023-04-29T12:51:11.949Z,23.22
2023-04-29T12:53:39.683Z,23.28
2023-04-29T12:56:07.182Z,23.33
2023-04-29T12:58:37.237Z,23.13
2023-04-29T13:01:04.428Z,23.24
2023-04-29T13:03:32.269Z,23.24
2023-04-29T13:05:59.501Z,23.12
2023-04-29T13:08:36.983Z,23.24
2023-04-29T13:11:04.016Z,23.31
2023-04-29T13:13:30.989Z,23.50
2023-04-29T13:15:58.537Z,23.78
2023-04-29T13:18:25.505Z,23.89
2023-04-29T13:20:53.200Z,24.04
2023-04-29T13:23:20.312Z,24.03
2023-04-29T13:25:48.712Z,24.13
2023-04-29T13:28:15.713Z,24.06
2023-04-29T13:30:43.197Z,24.22
2023-04-29T13:33:12.664Z,24.27
2023-04-29T13:35:42.015Z,24.22
2023-04-29T13:38:09.488Z,24.44
2023-04-29T13:40:40.632Z,24.37
2023-04-29T13:43:15.066Z,24.13
2023-04-29T13:45:46.450Z,24.01
2023-04-29T13:48:38.264Z,24.32
2023-04-29T13:56:58.214Z,24.19
2023-04-29T13:59:37.142Z,23.83
2023-04-29T14:02:21.685Z,23.76
2023-04-29T14:04:27.169Z,24.08
2023-04-29T14:06:55.389Z,23.95
2023-04-29T14:09:23.017Z,24.02
2023-04-29T14:11:50.312Z,24.10
2023-04-29T14:14:17.735Z,23.98
2023-04-29T14:16:44.902Z,23.91
2023-04-29T14:19:12.266Z,24.02
2023-04-29T14:21:39.554Z,23.81
2023-04-29T14:24:06.509Z,23.53
2023-04-29T14:26:33.531Z,23.51
2023-04-29T14:29:00.831Z,23.61
2023-04-29T14:31:29.556Z,23.72
2023-04-29T14:33:57.620Z,23.64
2023-04-29T14:47:55.021Z,24.86
2023-04-29T14:50:25.350Z,24.51
2023-04-29T14:52:52.431Z,24.57
2023-04-29T14:55:19.357Z,24.75
2023-04-29T14:57:46.527Z,24.20
2023-04-29T15:00:15.286Z,23.90
2023-04-29T15:02:42.290Z,23.88
2023-04-29T15:05:09.617Z,23.92
2023-04-29T15:07:36.667Z,23.65
2023-04-29T15:10:06.808Z,23.49
2023-04-29T15:12:37.294Z,23.91
2023-04-29T15:15:05.080Z,24.63
2023-04-29T15:17:32.012Z,24.86
2023-04-29T15:19:59.014Z,25.65
2023-04-29T15:22:26.018Z,26.79
2023-04-29T15:24:53.275Z,28.51
2023-04-29T15:27:20.263Z,28.97
2023-04-29T15:29:47.411Z,30.05
2023-04-29T15:32:14.763Z,29.68
2023-04-29T15:34:42.233Z,29.04
2023-04-29T15:37:09.170Z,29.99
2023-04-29T15:39:36.438Z,29.83
2023-04-29T15:42:04.090Z,29.61
2023-04-29T15:44:32.544Z,29.07
2023-04-29T15:47:00.121Z,28.42
2023-04-29T15:49:27.137Z,28.48
2023-04-29T15:51:54.004Z,28.49
2023-04-29T15:54:21.733Z,29.17
2023-04-29T15:56:49.270Z,29.53
2023-04-29T15:59:16.272Z,29.27
2023-04-29T16:01:43.418Z,28.61
2023-04-29T16:04:10.534Z,28.51
2023-04-29T16:06:37.575Z,28.83
2023-04-29T16:09:05.435Z,28.89
2023-04-29T16:11:32.981Z,27.74
2023-04-29T16:13:59.906Z,26.90
2023-04-29T16:16:26.980Z,27.01
2023-04-29T16:18:54.129Z,26.27
2023-04-29T16:21:21.264Z,25.30
2023-04-29T16:23:48.251Z,24.45
2023-04-29T16:26:15.301Z,24.12
2023-04-29T16:28:42.328Z,24.21
2023-04-29T16:31:13.222Z,25.12
2023-04-29T16:33:40.879Z,26.68
2023-04-29T16:36:08.078Z,26.47
2023-04-29T16:38:35.129Z,25.62
2023-04-29T16:41:02.209Z,24.48
2023-04-29T16:43:29.253Z,24.01
2023-04-29T16:45:56.280Z,23.47
2023-04-29T16:48:23.464Z,23.34
2023-04-29T16:50:50.832Z,22.93
2023-04-29T16:53:17.909Z,22.84
2023-04-29T16:55:46.117Z,22.88
2023-04-29T16:58:13.378Z,22.39
2023-04-29T17:00:40.407Z,22.41
2023-04-29T17:03:07.503Z,22.09
2023-04-29T17:05:34.587Z,21.95
2023-04-29T17:08:03.658Z,21.79
2023-04-29T17:10:30.685Z,21.70
2023-04-29T17:12:57.609Z,21.29
2023-04-29T17:15:24.705Z,20.14
2023-04-29T17:17:51.986Z,18.61
2023-04-29T17:20:18.960Z,17.71
2023-04-29T17:22:45.874Z,17.31
2023-04-29T17:25:14.116Z,17.23
2023-04-29T17:27:43.509Z,17.26
2023-04-29T17:30:11.014Z,17.05
2023-04-29T17:32:39.559Z,16.80
2023-04-29T17:35:08.657Z,16.71
2023-04-29T17:37:36.399Z,16.65
2023-04-29T17:40:04.074Z,16.77
2023-04-29T17:42:31.000Z,16.79
2023-04-29T17:44:57.999Z,16.80
2023-04-29T17:47:25.076Z,16.89
2023-04-29T17:49:52.457Z,16.90
2023-04-29T17:52:21.580Z,16.90
2023-04-29T17:54:49.057Z,16.82
2023-04-29T17:57:15.959Z,16.75
2023-04-29T17:59:42.926Z,16.65
2023-04-29T18:02:09.828Z,16.64
2023-04-29T18:04:37.652Z,16.64
2023-04-29T18:07:04.545Z,16.63
2023-04-29T18:09:31.610Z,16.51
2023-04-29T18:11:58.465Z,16.47
2023-04-29T18:14:27.797Z,16.48
2023-04-29T18:16:55.163Z,16.55
2023-04-29T18:19:22.138Z,16.64
2023-04-29T18:21:49.040Z,16.71
2023-04-29T18:24:16.334Z,16.77
2023-04-29T18:26:43.322Z,16.84
2023-04-29T18:29:10.442Z,16.84
2023-04-29T18:31:37.425Z,16.78
2023-04-29T18:34:04.410Z,16.81
2023-04-29T18:36:32.337Z,16.63
2023-04-29T18:38:59.253Z,16.45
2023-04-29T18:41:26.697Z,16.30
2023-04-29T18:43:53.684Z,16.21
2023-04-29T18:46:20.581Z,16.13
2023-04-29T18:48:47.635Z,16.11
2023-04-29T18:51:14.597Z,16.04
2023-04-29T18:53:42.201Z,16.02
2023-04-29T18:56:09.176Z,15.95
2023-04-29T18:58:36.373Z,15.95
2023-04-29T19:01:03.456Z,15.91
2023-04-29T19:03:30.512Z,15.99
2023-04-29T19:05:58.237Z,16.02
2023-04-29T19:08:25.242Z,16.08
2023-04-29T19:10:53.684Z,16.10
2023-04-29T19:13:20.711Z,16.09
2023-04-29T19:15:50.914Z,16.07
2023-04-29T19:18:20.353Z,16.08
2023-04-29T19:20:49.130Z,16.09
2023-04-29T19:23:16.188Z,15.99
2023-04-29T19:25:43.176Z,15.99
2023-04-29T19:28:10.436Z,16.00
2023-04-29T19:30:37.486Z,16.02
2023-04-29T19:33:04.593Z,16.07
2023-04-29T19:35:31.628Z,16.28
2023-04-29T19:37:58.559Z,16.34
2023-04-29T19:40:25.700Z,16.36
2023-04-29T19:42:52.632Z,16.39
2023-04-29T19:45:19.551Z,16.40
2023-04-29T19:47:48.683Z,16.47
2023-04-29T19:50:15.864Z,16.52
2023-04-29T19:52:42.804Z,16.52
2023-04-29T19:55:10.004Z,16.51
2023-04-29T19:57:38.173Z,16.56
2023-04-29T20:00:06.273Z,16.47
2023-04-29T20:02:33.727Z,16.24
2023-04-29T20:05:01.192Z,16.02
2023-04-29T20:07:28.247Z,15.67
2023-04-29T20:09:56.372Z,15.34
2023-04-29T20:12:23.873Z,15.26
2023-04-29T20:14:51.209Z,15.22
2023-04-29T20:17:18.286Z,15.15
2023-04-29T20:19:45.563Z,14.89
2023-04-29T20:22:13.609Z,14.76
2023-04-29T20:24:40.625Z,14.65
2023-04-29T20:27:08.128Z,14.58
2023-04-29T20:29:35.179Z,14.65
2023-04-29T20:32:03.073Z,14.59
2023-04-29T20:34:30.410Z,14.53
2023-04-29T20:36:57.300Z,14.49
2023-04-29T20:39:25.724Z,14.42
2023-04-29T20:41:56.544Z,14.37
2023-04-29T20:44:23.645Z,14.37
2023-04-29T20:46:52.400Z,14.32
2023-04-29T20:49:19.783Z,14.39
2023-04-29T20:51:46.773Z,14.38
2023-04-29T20:54:14.171Z,14.35
2023-04-29T20:56:41.707Z,14.22
2023-04-29T20:59:08.700Z,14.21
2023-04-29T21:01:37.771Z,14.33
2023-04-29T21:04:05.868Z,14.41
2023-04-29T21:06:33.783Z,14.26
2023-04-29T21:09:01.126Z,14.38
2023-04-29T21:11:28.056Z,14.43
2023-04-29T21:13:54.987Z,14.41
2023-04-29T21:16:22.104Z,14.33
2023-04-29T21:18:49.227Z,14.29
2023-04-29T21:21:16.539Z,14.29
2023-04-29T21:23:43.673Z,14.22
2023-04-29T21:26:10.687Z,14.09
2023-04-29T21:28:37.677Z,14.07
2023-04-29T21:31:04.850Z,14.07
2023-04-29T21:33:31.823Z,14.07
2023-04-29T21:36:00.024Z,14.10
2023-04-29T21:38:27.047Z,14.11
2023-04-29T21:40:53.977Z,14.25
2023-04-29T21:43:20.943Z,14.11
2023-04-29T21:45:47.959Z,14.15
2023-04-29T21:48:17.275Z,14.28
2023-04-29T21:50:45.044Z,14.20
2023-04-29T21:53:15.249Z,14.20
2023-04-29T21:55:43.482Z,14.18
2023-04-29T21:58:11.138Z,14.23
2023-04-29T22:00:42.083Z,14.27
2023-04-29T22:03:10.054Z,14.24
2023-04-29T22:05:37.537Z,14.20
2023-04-29T22:08:07.611Z,14.19
2023-04-29T22:10:34.966Z,14.05
2023-04-29T22:13:02.065Z,14.08
2023-04-29T22:15:29.623Z,14.15
2023-04-29T22:17:57.574Z,14.18
2023-04-29T22:20:25.209Z,14.09
2023-04-29T22:22:52.572Z,14.11
2023-04-29T22:25:22.059Z,14.36
2023-04-29T22:27:49.960Z,14.28
2023-04-29T22:30:18.084Z,14.30
2023-04-29T22:32:45.236Z,14.24
2023-04-29T22:35:12.263Z,14.23
2023-04-29T22:37:39.265Z,14.20
2023-04-29T22:40:06.855Z,14.10
2023-04-29T22:42:33.870Z,14.14
2023-04-29T22:45:00.913Z,14.16
2023-04-29T22:47:27.874Z,14.15
2023-04-29T22:49:55.047Z,14.11
2023-04-29T22:52:22.311Z,14.01
2023-04-29T22:54:49.330Z,13.96
2023-04-29T22:57:16.578Z,13.90
2023-04-29T22:59:43.501Z,13.93
2023-04-29T23:02:10.421Z,13.95
2023-04-29T23:04:37.314Z,13.80
2023-04-29T23:07:04.442Z,13.76
2023-04-29T23:09:31.364Z,13.87
2023-04-29T23:11:59.550Z,13.80
2023-04-29T23:14:26.538Z,13.72
2023-04-29T23:16:53.614Z,13.71
2023-04-29T23:19:20.514Z,13.69
2023-04-29T23:21:47.441Z,13.86
2023-04-29T23:24:14.376Z,13.74
2023-04-29T23:26:41.464Z,13.61
2023-04-29T23:29:08.479Z,13.42
2023-04-29T23:31:35.657Z,13.28
2023-04-29T23:34:02.569Z,13.23
2023-04-29T23:36:29.863Z,13.19
2023-04-29T23:38:56.788Z,13.12
2023-04-29T23:41:23.785Z,13.14
2023-04-29T23:43:50.778Z,13.22
2023-04-29T23:46:17.836Z,13.11
2023-04-29T23:48:45.095Z,13.01
2023-04-29T23:51:12.142Z,12.99
2023-04-29T23:53:40.176Z,12.94
2023-04-29T23:56:07.317Z,12.96
2023-04-29T23:58:34.239Z,12.89
